Time;durP1;ratioP1;P1;durP2;ratioP2;P2;SDS_P1;SDS_P2;PMS_P1;PMS_P2;Temp;Humidity;BMP_temperature;BMP_pressure;BME280_temperature;BME280_humidity;BME280_pressure;Samples;Min_cycle;Max_cycle;Signal;HPM_P1;HPM_P2
2024/03/22 00:00:32;;;;;;;48.83;25.25;;;11.60;61.90;;;;;;5030637;28;20419;-72
2024/03/22 00:02:58;;;;;;;49.20;24.88;;;11.60;61.80;;;;;;5013442;28;20896;-70
2024/03/22 00:05:24;;;;;;;57.50;25.65;;;11.50;62.50;;;;;;5031133;28;20387;-71
2024/03/22 00:07:50;;;;;;;52.10;25.43;;;11.60;62.40;;;;;;5030892;28;20448;-71
2024/03/22 00:10:15;;;;;;;55.58;24.83;;;11.60;62.50;;;;;;5030697;28;20449;-72
2024/03/22 00:12:41;;;;;;;57.85;25.23;;;11.60;62.90;;;;;;5031093;28;20399;-73
2024/03/22 00:15:07;;;;;;;51.50;26.17;;;11.60;63.10;;;;;;5030844;28;20438;-72
2024/03/22 00:17:33;;;;;;;49.67;25.17;;;11.60;63.00;;;;;;5012977;28;20379;-72
2024/03/22 00:19:59;;;;;;;56.25;25.75;;;11.50;63.30;;;;;;5030411;28;20582;-71
2024/03/22 00:22:25;;;;;;;56.38;26.05;;;11.50;63.70;;;;;;5030609;28;20498;-72
2024/03/22 00:24:50;;;;;;;55.65;27.42;;;11.50;64.10;;;;;;5030365;28;20429;-72
2024/03/22 00:27:16;;;;;;;55.05;25.25;;;11.50;64.20;;;;;;5030538;28;20391;-72
2024/03/22 00:29:42;;;;;;;51.70;26.40;;;11.50;64.10;;;;;;5030410;28;20399;-72
2024/03/22 00:32:07;;;;;;;54.63;25.70;;;11.40;64.40;;;;;;5030645;28;20853;-71
2024/03/22 00:34:34;;;;;;;55.17;26.60;;;11.50;64.30;;;;;;5030382;28;20452;-71
2024/03/22 00:37:00;;;;;;;59.30;26.08;;;11.40;64.50;;;;;;5030604;28;20394;-70
2024/03/22 00:39:25;;;;;;;51.07;25.70;;;11.50;64.60;;;;;;5012509;28;20398;-70
2024/03/22 00:41:51;;;;;;;50.03;25.60;;;11.50;64.80;;;;;;5030703;28;20418;-71
2024/03/22 00:44:16;;;;;;;54.13;24.80;;;11.40;64.30;;;;;;5030559;28;20387;-70
2024/03/22 00:46:42;;;;;;;57.65;25.88;;;11.50;63.70;;;;;;5030403;28;20406;-71
2024/03/22 00:49:07;;;;;;;51.17;25.60;;;11.50;63.50;;;;;;5030612;28;20386;-71
2024/03/22 00:51:33;;;;;;;56.47;26.50;;;11.50;63.50;;;;;;5030385;28;20391;-71
2024/03/22 00:53:58;;;;;;;54.77;26.07;;;11.40;64.00;;;;;;5020195;28;20458;-73
2024/03/22 00:56:24;;;;;;;55.55;26.35;;;11.50;64.00;;;;;;5057208;28;20498;-73
2024/03/22 00:58:49;;;;;;;60.30;26.70;;;11.50;63.80;;;;;;5057144;28;20486;-72
2024/03/22 01:01:15;;;;;;;55.60;27.00;;;11.40;64.50;;;;;;5036835;28;20537;-71
2024/03/22 01:03:40;;;;;;;57.90;25.70;;;11.40;64.70;;;;;;5034064;28;20387;-72
2024/03/22 01:06:07;;;;;;;54.13;25.63;;;11.40;64.40;;;;;;5034067;28;20395;-71
2024/03/22 01:08:32;;;;;;;61.97;27.17;;;11.30;65.50;;;;;;5034084;28;20457;-72
2024/03/22 01:10:58;;;;;;;53.37;25.37;;;11.40;65.50;;;;;;5033690;28;20629;-72
2024/03/22 01:13:23;;;;;;;55.77;26.97;;;11.30;65.60;;;;;;5033818;28;20392;-71
2024/03/22 01:15:49;;;;;;;51.53;25.40;;;11.30;65.60;;;;;;5016241;28;20405;-71
2024/03/22 01:18:15;;;;;;;56.42;25.27;;;11.40;65.30;;;;;;5033565;28;20482;-71
2024/03/22 01:20:42;;;;;;;51.10;25.13;;;11.30;66.40;;;;;;5015987;28;20579;-72
2024/03/22 01:23:07;;;;;;;53.65;24.60;;;11.40;66.90;;;;;;5034152;28;20797;-71
2024/03/22 01:25:33;;;;;;;54.75;25.50;;;11.30;66.70;;;;;;5034087;28;20475;-71
2024/03/22 01:27:58;;;;;;;57.15;24.33;;;11.30;67.00;;;;;;5034356;28;20379;-71
2024/03/22 01:30:28;;;;;;;51.33;24.27;;;11.30;66.60;;;;;;5036975;28;20407;-72
2024/03/22 01:32:54;;;;;;;50.45;22.92;;;11.30;67.10;;;;;;5035505;28;20375;-72
2024/03/22 01:35:20;;;;;;;48.30;22.77;;;11.30;66.70;;;;;;5033827;28;20379;-71
2024/03/22 01:37:45;;;;;;;56.28;25.10;;;11.30;66.70;;;;;;5033855;28;20466;-71
2024/03/22 01:40:11;;;;;;;51.30;24.03;;;11.30;66.60;;;;;;5032957;28;20387;-72
2024/03/22 01:42:37;;;;;;;51.40;24.30;;;11.30;66.70;;;;;;5033397;28;20414;-72
2024/03/22 01:45:03;;;;;;;49.60;22.70;;;11.30;66.70;;;;;;5033188;28;20386;-71
2024/03/22 01:47:29;;;;;;;47.00;23.20;;;11.30;66.70;;;;;;5033438;28;20387;-71
2024/03/22 01:49:55;;;;;;;48.10;23.50;;;11.30;66.60;;;;;;5033187;28;20390;-71
2024/03/22 01:52:21;;;;;;;50.77;24.63;;;11.30;67.10;;;;;;5033060;28;20520;-71
2024/03/22 01:54:46;;;;;;;50.17;23.13;;;11.30;67.20;;;;;;5033255;28;20555;-70
2024/03/22 01:57:12;;;;;;;50.40;22.87;;;11.20;67.30;;;;;;5033518;28;20790;-70
2024/03/22 01:59:38;;;;;;;51.43;22.37;;;11.30;66.80;;;;;;5033334;28;20402;-71
2024/03/22 02:02:04;;;;;;;50.35;22.67;;;11.30;67.30;;;;;;5033597;28;20458;-71
2024/03/22 02:04:29;;;;;;;51.95;22.65;;;11.30;66.70;;;;;;5032207;28;20414;-70
2024/03/22 02:06:55;;;;;;;50.75;23.13;;;11.30;66.80;;;;;;5033046;28;20425;-72
2024/03/22 02:09:21;;;;;;;50.40;22.57;;;11.30;66.50;;;;;;5032872;28;20395;-71
2024/03/22 02:11:47;;;;;;;47.53;22.05;;;11.30;67.00;;;;;;5032967;28;20387;-70
2024/03/22 02:14:13;;;;;;;49.58;23.35;;;11.30;66.90;;;;;;5032781;28;20419;-72
2024/03/22 02:16:40;;;;;;;45.65;21.73;;;11.40;66.70;;;;;;5032725;28;20800;-70
2024/03/22 02:19:06;;;;;;;45.58;22.15;;;11.30;66.90;;;;;;5032792;28;20913;-71
2024/03/22 02:21:32;;;;;;;46.88;22.40;;;11.40;66.40;;;;;;5033064;28;20387;-71
2024/03/22 02:23:57;;;;;;;43.53;22.50;;;11.30;66.20;;;;;;5032860;28;20414;-70
2024/03/22 02:26:23;;;;;;;45.65;22.95;;;11.30;66.20;;;;;;5032967;28;20444;-72
2024/03/22 02:28:48;;;;;;;46.07;21.53;;;11.30;66.60;;;;;;5032586;28;20395;-72
2024/03/22 02:31:14;;;;;;;46.33;21.80;;;11.40;66.10;;;;;;5015059;28;20717;-72
2024/03/22 02:33:40;;;;;;;48.47;22.90;;;11.30;66.60;;;;;;5033022;28;20920;-72
2024/03/22 02:36:05;;;;;;;52.63;22.90;;;11.30;66.60;;;;;;5014927;28;20777;-72
2024/03/22 02:38:31;;;;;;;40.80;20.63;;;11.30;66.30;;;;;;5032575;28;20403;-72
2024/03/22 02:40:58;;;;;;;41.45;22.35;;;11.40;67.00;;;;;;5031908;28;20770;-72
2024/03/22 02:43:23;;;;;;;44.95;20.90;;;11.40;66.70;;;;;;5032327;28;20394;-72
2024/03/22 02:45:49;;;;;;;47.90;23.10;;;11.40;65.90;;;;;;5031801;28;20719;-72
2024/03/22 02:48:15;;;;;;;39.15;20.85;;;11.40;66.20;;;;;;5032310;28;20391;-71
2024/03/22 02:50:41;;;;;;;40.35;20.67;;;11.40;67.00;;;;;;5031704;28;20389;-72
2024/03/22 02:53:06;;;;;;;42.95;21.30;;;11.30;67.10;;;;;;5032067;28;20389;-72
2024/03/22 02:55:41;;;;;;;44.55;22.20;;;11.30;67.70;;;;;;5031802;28;20398;-72
2024/03/22 02:58:07;;;;;;;40.88;21.58;;;11.30;68.00;;;;;;5013950;28;20407;-72
2024/03/22 03:00:39;;;;;;;43.78;21.05;;;11.30;67.20;;;;;;5032056;28;20421;-73
2024/03/22 03:03:08;;;;;;;44.67;21.30;;;11.30;67.60;;;;;;5032074;28;20825;-72
2024/03/22 03:05:34;;;;;;;42.20;20.80;;;11.20;68.40;;;;;;5031660;28;20880;-71
2024/03/22 03:08:00;;;;;;;43.30;21.83;;;11.10;68.90;;;;;;5031732;28;20555;-72
2024/03/22 03:10:26;;;;;;;41.07;21.80;;;11.10;70.30;;;;;;5031392;28;20391;-71
2024/03/22 03:12:54;;;;;;;43.58;21.48;;;11.00;70.30;;;;;;5031598;28;20387;-72
2024/03/22 03:15:19;;;;;;;44.55;21.48;;;11.00;71.20;;;;;;5031283;28;20391;-71
2024/03/22 03:17:45;;;;;;;43.60;20.67;;;11.00;70.90;;;;;;5031319;28;20406;-71
2024/03/22 03:20:13;;;;;;;46.77;21.30;;;10.90;72.60;;;;;;5031116;28;20387;-71
2024/03/22 03:22:41;;;;;;;43.40;20.70;;;10.90;72.50;;;;;;5031603;28;20901;-72
2024/03/22 03:25:07;;;;;;;41.60;20.83;;;10.90;73.70;;;;;;5031045;28;20405;-72
2024/03/22 03:27:33;;;;;;;43.22;20.50;;;10.90;74.00;;;;;;5031286;28;20395;-72
2024/03/22 03:29:59;;;;;;;43.03;20.80;;;10.90;73.70;;;;;;5013170;28;20753;-72
2024/03/22 03:32:25;;;;;;;39.00;19.52;;;11.00;72.90;;;;;;5031585;28;20395;-72
2024/03/22 03:34:51;;;;;;;39.45;19.85;;;11.00;73.00;;;;;;5030969;28;20420;-72
2024/03/22 03:37:17;;;;;;;41.20;20.75;;;11.00;73.40;;;;;;5031361;28;20908;-72
2024/03/22 03:39:42;;;;;;;40.87;20.37;;;11.00;74.40;;;;;;5013174;28;20407;-72
2024/03/22 03:42:08;;;;;;;43.50;20.90;;;10.90;74.70;;;;;;5032818;28;20398;-72
2024/03/22 03:44:33;;;;;;;41.93;19.30;;;10.80;76.50;;;;;;5036431;28;20387;-72
2024/03/22 03:47:01;;;;;;;41.15;19.30;;;10.80;77.10;;;;;;5049597;28;20399;-72
2024/03/22 03:49:27;;;;;;;40.97;20.20;;;10.70;77.70;;;;;;5044715;28;20419;-72
2024/03/22 03:51:52;;;;;;;41.80;20.23;;;10.60;78.80;;;;;;5031763;28;20415;-73
2024/03/22 03:54:18;;;;;;;41.78;20.77;;;10.50;80.00;;;;;;5030884;28;20387;-73
2024/03/22 03:56:43;;;;;;;45.05;20.98;;;10.50;81.70;;;;;;5030879;28;20395;-72
2024/03/22 03:59:09;;;;;;;36.30;19.40;;;10.40;82.50;;;;;;5030989;28;20838;-71
2024/03/22 04:01:35;;;;;;;42.97;20.03;;;10.30;83.80;;;;;;5030835;28;20395;-73
2024/03/22 04:04:00;;;;;;;41.27;19.50;;;10.30;85.10;;;;;;5031038;28;20788;-72
2024/03/22 04:06:26;;;;;;;40.20;20.30;;;10.20;85.30;;;;;;5030573;28;20391;-72
2024/03/22 04:08:51;;;;;;;42.88;20.83;;;10.20;86.50;;;;;;5013175;28;20391;-72
2024/03/22 04:11:17;;;;;;;37.20;19.17;;;10.20;85.90;;;;;;5030656;28;20383;-72
2024/03/22 04:13:42;;;;;;;42.50;21.10;;;10.20;87.70;;;;;;5013103;28;20387;-72
2024/03/22 04:16:08;;;;;;;40.67;20.35;;;10.20;87.10;;;;;;5030792;28;20387;-71
2024/03/22 04:18:34;;;;;;;40.03;20.40;;;10.20;87.20;;;;;;5030670;28;20399;-73
2024/03/22 04:21:00;;;;;;;42.27;19.63;;;10.10;87.40;;;;;;5031066;28;20395;-72
2024/03/22 04:23:25;;;;;;;41.83;21.05;;;10.10;88.50;;;;;;5030785;28;20452;-72
2024/03/22 04:25:53;;;;;;;40.60;20.55;;;10.10;89.20;;;;;;5019535;28;20454;-71
2024/03/22 04:28:18;;;;;;;40.78;19.67;;;10.10;89.40;;;;;;5023699;28;20424;-73
2024/03/22 04:31:04;;;;;;;40.33;19.47;;;10.20;88.60;;;;;;5022089;28;20440;-72
2024/03/22 04:33:31;;;;;;;35.97;20.00;;;10.20;87.90;;;;;;5038996;28;20409;-77
2024/03/22 04:35:57;;;;;;;37.25;19.58;;;10.20;88.20;;;;;;5038805;28;20386;-74
2024/03/22 04:38:24;;;;;;;37.03;19.45;;;10.30;88.50;;;;;;5024806;28;20973;-75
2024/03/22 04:40:50;;;;;;;37.25;19.08;;;10.30;87.80;;;;;;4999515;28;20407;-77
2024/03/22 04:43:17;;;;;;;36.30;18.60;;;10.30;87.80;;;;;;5009187;28;20474;-77
2024/03/22 04:45:43;;;;;;;38.92;18.88;;;10.40;86.60;;;;;;5037461;28;20486;-77
2024/03/22 04:48:09;;;;;;;38.42;18.90;;;10.50;85.90;;;;;;5037536;28;20726;-71
2024/03/22 04:50:35;;;;;;;46.90;19.70;;;10.50;84.30;;;;;;5037507;28;20441;-69
2024/03/22 04:53:01;;;;;;;38.30;18.80;;;10.50;84.20;;;;;;5037120;28;20387;-71
2024/03/22 04:55:26;;;;;;;36.90;19.30;;;10.50;83.80;;;;;;5030553;28;20728;-72
2024/03/22 04:57:52;;;;;;;37.53;18.30;;;10.60;82.90;;;;;;5018654;28;20392;-72
2024/03/22 05:00:18;;;;;;;36.40;18.60;;;10.60;82.80;;;;;;5017928;28;20404;-70
2024/03/22 05:02:44;;;;;;;35.97;19.27;;;10.60;82.10;;;;;;5017757;28;20385;-76
2024/03/22 05:05:09;;;;;;;36.58;18.95;;;10.60;82.80;;;;;;5000232;28;20906;-77
2024/03/22 05:07:35;;;;;;;36.72;18.77;;;10.60;82.80;;;;;;5000806;28;20392;-77
2024/03/22 05:10:02;;;;;;;32.72;17.70;;;10.60;83.00;;;;;;5017836;28;20411;-76
2024/03/22 05:12:27;;;;;;;40.67;18.73;;;10.60;83.10;;;;;;5017587;28;20419;-75
2024/03/22 05:14:53;;;;;;;36.40;19.37;;;10.70;81.80;;;;;;5018687;28;20454;-78
2024/03/22 05:17:18;;;;;;;36.60;19.57;;;10.80;81.90;;;;;;5018244;28;20458;-74
2024/03/22 05:19:44;;;;;;;37.30;18.40;;;10.70;81.70;;;;;;5017476;28;20603;-77
2024/03/22 05:22:09;;;;;;;38.70;18.48;;;10.80;81.60;;;;;;5017845;28;20428;-77
2024/03/22 05:24:35;;;;;;;34.50;17.60;;;10.90;80.90;;;;;;5017471;28;20380;-76
2024/03/22 05:27:00;;;;;;;31.73;18.40;;;10.90;80.70;;;;;;5016667;28;20979;-76
2024/03/22 05:29:26;;;;;;;32.60;18.53;;;10.90;80.10;;;;;;5016590;28;20462;-76
2024/03/22 05:31:52;;;;;;;28.47;17.17;;;11.00;79.90;;;;;;5017078;28;20768;-75
2024/03/22 05:34:18;;;;;;;36.35;18.20;;;11.00;79.60;;;;;;5016924;28;20876;-76
2024/03/22 05:36:45;;;;;;;34.92;17.95;;;11.00;79.10;;;;;;5017055;28;20393;-77
2024/03/22 05:39:11;;;;;;;35.03;18.25;;;11.10;78.30;;;;;;5016682;28;20496;-77
2024/03/22 05:41:37;;;;;;;32.17;18.30;;;11.00;77.80;;;;;;5014125;28;20393;-76
2024/03/22 05:44:06;;;;;;;29.73;17.38;;;11.10;76.90;;;;;;5014271;28;20672;-76
2024/03/22 05:46:31;;;;;;;33.75;18.30;;;11.10;77.10;;;;;;5014389;28;20483;-76
2024/03/22 05:49:00;;;;;;;39.33;17.88;;;11.10;77.30;;;;;;5014292;28;20480;-75
2024/03/22 05:51:26;;;;;;;36.00;16.77;;;11.20;76.20;;;;;;5013526;28;20428;-76
2024/03/22 05:53:51;;;;;;;34.58;18.45;;;11.30;74.60;;;;;;5014153;28;20401;-76
2024/03/22 05:56:17;;;;;;;29.67;17.73;;;11.30;74.40;;;;;;5019490;28;20384;-76
2024/03/22 05:58:43;;;;;;;32.17;17.47;;;11.20;74.00;;;;;;5021298;28;20409;-76
2024/03/22 06:01:08;;;;;;;35.57;17.97;;;11.30;75.10;;;;;;5023758;28;20451;-76
2024/03/22 06:03:34;;;;;;;32.43;17.20;;;11.30;74.30;;;;;;5025166;28;20384;-76
2024/03/22 06:06:00;;;;;;;30.40;16.53;;;11.40;73.30;;;;;;5025198;28;20465;-76
2024/03/22 06:08:28;;;;;;;31.90;17.42;;;11.40;73.70;;;;;;5018398;28;20389;-76
2024/03/22 06:10:55;;;;;;;29.73;17.60;;;11.40;73.30;;;;;;4997239;28;20445;-77
2024/03/22 06:13:21;;;;;;;35.42;16.30;;;11.40;73.30;;;;;;5015304;28;20895;-77
2024/03/22 06:15:49;;;;;;;31.43;17.80;;;11.50;73.70;;;;;;5015637;28;20403;-77
2024/03/22 06:18:14;;;;;;;30.00;17.13;;;11.60;72.60;;;;;;5016721;28;20456;-76
2024/03/22 06:20:40;;;;;;;34.73;18.67;;;11.70;71.10;;;;;;5014036;28;20400;-75
2024/03/22 06:23:07;;;;;;;31.07;17.17;;;11.80;70.00;;;;;;5015147;28;20443;-75
2024/03/22 06:25:32;;;;;;;28.48;16.63;;;11.90;68.60;;;;;;5030544;28;20443;-76
2024/03/22 06:27:58;;;;;;;32.85;17.30;;;12.00;67.20;;;;;;5022359;28;20384;-75
2024/03/22 06:30:23;;;;;;;29.80;17.58;;;12.10;65.90;;;;;;4995918;28;20937;-77
2024/03/22 06:32:49;;;;;;;32.73;17.53;;;12.20;65.60;;;;;;5015484;28;20870;-76
2024/03/22 06:35:14;;;;;;;37.10;18.43;;;12.30;64.20;;;;;;5016311;28;20487;-77
2024/03/22 06:37:40;;;;;;;34.37;17.87;;;12.40;63.40;;;;;;5017374;28;20861;-76
2024/03/22 06:40:10;;;;;;;31.80;16.25;;;12.40;62.20;;;;;;5016456;28;20408;-75
2024/03/22 06:42:35;;;;;;;38.60;17.50;;;12.50;60.90;;;;;;5013973;28;20397;-76
2024/03/22 06:45:02;;;;;;;36.20;17.67;;;12.60;60.50;;;;;;5013443;28;20881;-77
2024/03/22 06:47:28;;;;;;;36.72;18.40;;;12.70;59.30;;;;;;5013938;28;20399;-76
2024/03/22 06:49:53;;;;;;;31.05;17.73;;;12.80;58.90;;;;;;5014440;28;20475;-76
2024/03/22 06:52:20;;;;;;;33.20;16.87;;;12.80;58.10;;;;;;5013921;28;20800;-76
2024/03/22 06:54:45;;;;;;;33.30;16.80;;;12.80;57.60;;;;;;5015710;28;20465;-77
2024/03/22 06:57:11;;;;;;;34.95;17.42;;;12.90;56.10;;;;;;5015908;28;20427;-77
2024/03/22 06:59:36;;;;;;;29.10;16.80;;;12.90;56.50;;;;;;5016942;28;20405;-77
2024/03/22 07:02:02;;;;;;;32.67;17.10;;;13.00;55.80;;;;;;5013722;28;20447;-76
2024/03/22 07:04:28;;;;;;;32.73;17.17;;;13.10;55.30;;;;;;5016078;28;20426;-77
2024/03/22 07:06:53;;;;;;;35.10;18.10;;;13.20;54.00;;;;;;5015995;28;20814;-76
2024/03/22 07:09:19;;;;;;;30.05;17.35;;;13.30;53.10;;;;;;5015036;28;20400;-77
2024/03/22 07:11:44;;;;;;;33.53;17.77;;;13.50;52.50;;;;;;5017985;28;20752;-76
2024/03/22 07:14:10;;;;;;;29.93;17.53;;;13.60;51.30;;;;;;5016351;28;20423;-77
2024/03/22 07:16:37;;;;;;;38.30;19.20;;;13.80;50.60;;;;;;5016388;28;20385;-75
2024/03/22 07:19:03;;;;;;;33.40;19.08;;;13.90;49.60;;;;;;5016818;28;20438;-77
2024/03/22 07:21:29;;;;;;;41.93;19.70;;;14.00;48.90;;;;;;5016145;28;20388;-76
2024/03/22 07:23:54;;;;;;;32.65;19.70;;;14.10;48.60;;;;;;5014126;28;20443;-76
2024/03/22 07:26:20;;;;;;;35.27;19.60;;;14.20;48.60;;;;;;5013815;28;20883;-76
2024/03/22 07:28:45;;;;;;;36.80;21.30;;;14.30;48.30;;;;;;5015388;28;20396;-75
2024/03/22 07:31:11;;;;;;;38.22;21.00;;;14.40;47.80;;;;;;5013665;28;20479;-77
2024/03/22 07:33:39;;;;;;;38.80;21.25;;;14.50;47.30;;;;;;5012237;28;20413;-76
2024/03/22 07:36:04;;;;;;;42.05;21.83;;;14.70;46.70;;;;;;5014442;28;20384;-77
2024/03/22 07:38:30;;;;;;;44.53;22.00;;;14.80;45.60;;;;;;5012761;28;20501;-77
2024/03/22 07:40:56;;;;;;;44.43;22.67;;;15.00;45.30;;;;;;5012848;28;20428;-75
2024/03/22 07:43:21;;;;;;;36.30;20.40;;;15.10;44.80;;;;;;5014241;28;20388;-77
2024/03/22 07:45:47;;;;;;;41.60;22.05;;;15.30;43.90;;;;;;5015840;28;20392;-78
2024/03/22 07:48:12;;;;;;;37.67;21.57;;;15.30;43.50;;;;;;4996970;28;20788;-77
2024/03/22 07:50:38;;;;;;;47.60;23.07;;;15.40;43.00;;;;;;5012367;28;20813;-76
2024/03/22 07:53:04;;;;;;;44.85;23.17;;;15.50;43.10;;;;;;5013728;28;20417;-75
2024/03/22 07:55:29;;;;;;;38.22;22.83;;;15.60;41.90;;;;;;5012883;28;20385;-75
2024/03/22 07:57:56;;;;;;;41.10;22.97;;;15.60;41.20;;;;;;5012554;28;20385;-76
2024/03/22 08:00:21;;;;;;;41.28;22.77;;;15.60;41.80;;;;;;4994313;28;20450;-76
2024/03/22 08:02:47;;;;;;;42.88;22.20;;;15.70;41.70;;;;;;5011319;28;20521;-77
2024/03/22 08:05:13;;;;;;;41.42;22.80;;;15.80;41.00;;;;;;5013167;28;20700;-76
2024/03/22 08:07:38;;;;;;;45.20;24.30;;;15.80;41.20;;;;;;5012830;28;20392;-76
2024/03/22 08:10:04;;;;;;;41.10;24.13;;;15.80;40.00;;;;;;5011522;28;20393;-75
2024/03/22 08:12:30;;;;;;;49.92;21.92;;;15.80;40.00;;;;;;5013307;28;20447;-76
2024/03/22 08:14:55;;;;;;;46.53;23.37;;;15.90;40.30;;;;;;5012146;28;20389;-75
2024/03/22 08:17:21;;;;;;;39.08;21.92;;;15.90;40.10;;;;;;5012652;28;20930;-75
2024/03/22 08:19:47;;;;;;;43.08;23.20;;;15.80;39.90;;;;;;5011549;28;20814;-76
2024/03/22 08:22:12;;;;;;;41.93;23.30;;;15.70;39.80;;;;;;5012324;28;20388;-77
2024/03/22 08:24:38;;;;;;;40.93;23.23;;;15.70;39.80;;;;;;5011898;28;20451;-75
2024/03/22 08:27:04;;;;;;;39.83;21.98;;;15.70;40.50;;;;;;5063980;23;20429;-73
2024/03/22 08:29:29;;;;;;;38.97;22.40;;;15.80;39.10;;;;;;5069570;28;20400;-73
2024/03/22 08:31:55;;;;;;;43.77;22.37;;;15.80;39.30;;;;;;5070705;28;20388;-74
2024/03/22 08:34:21;;;;;;;38.17;21.20;;;15.90;39.10;;;;;;5066480;28;20393;-73
2024/03/22 08:36:47;;;;;;;32.85;20.13;;;15.90;38.50;;;;;;5035636;28;20401;-72
2024/03/22 08:39:12;;;;;;;38.00;21.33;;;15.80;38.60;;;;;;5034163;28;20508;-75
2024/03/22 08:41:38;;;;;;;38.67;21.90;;;15.90;38.60;;;;;;5051982;28;20415;-74
2024/03/22 08:44:04;;;;;;;39.97;20.90;;;15.90;38.30;;;;;;5034289;28;20385;-74
2024/03/22 08:46:32;;;;;;;37.63;20.45;;;15.90;38.00;;;;;;5051960;28;20383;-73
2024/03/22 08:48:57;;;;;;;34.80;20.02;;;15.90;37.60;;;;;;5052117;28;20389;-73
2024/03/22 08:51:23;;;;;;;45.50;20.55;;;15.90;37.70;;;;;;5051156;28;20393;-74
2024/03/22 08:53:48;;;;;;;37.33;21.03;;;15.90;38.20;;;;;;5051520;28;20408;-73
2024/03/22 08:56:14;;;;;;;32.77;18.73;;;16.10;37.50;;;;;;5033839;28;20423;-74
2024/03/22 08:58:40;;;;;;;34.20;19.67;;;16.10;36.50;;;;;;5051105;28;20402;-73
2024/03/22 09:01:06;;;;;;;36.65;18.73;;;16.10;36.40;;;;;;5051939;28;20408;-75
2024/03/22 09:03:31;;;;;;;36.80;19.55;;;16.10;35.70;;;;;;5052917;28;20385;-75
2024/03/22 09:05:57;;;;;;;30.85;16.77;;;16.10;34.60;;;;;;5038032;28;20374;-72
2024/03/22 09:08:23;;;;;;;33.30;16.75;;;16.10;33.90;;;;;;5061013;28;20392;-72
2024/03/22 09:10:48;;;;;;;31.88;17.20;;;16.00;34.60;;;;;;5061720;28;20381;-72
2024/03/22 09:13:14;;;;;;;27.30;16.38;;;16.10;34.90;;;;;;5065832;28;20381;-73
2024/03/22 09:15:40;;;;;;;31.50;17.30;;;16.20;35.10;;;;;;5067162;28;20396;-74
2024/03/22 09:18:06;;;;;;;28.73;16.53;;;16.50;33.60;;;;;;5064484;28;20393;-72
2024/03/22 09:20:32;;;;;;;32.63;17.20;;;16.80;32.60;;;;;;5064657;28;20389;-73
2024/03/22 09:22:57;;;;;;;30.67;17.48;;;17.10;32.10;;;;;;5066245;28;20379;-74
2024/03/22 09:25:25;;;;;;;28.92;17.67;;;17.20;31.40;;;;;;5054362;28;20377;-73
2024/03/22 09:27:51;;;;;;;29.95;17.90;;;17.30;31.00;;;;;;5053739;28;20956;-75
2024/03/22 09:30:17;;;;;;;37.27;18.57;;;17.40;31.40;;;;;;5053528;28;20417;-73
2024/03/22 09:32:42;;;;;;;29.73;16.67;;;17.60;31.00;;;;;;5035932;28;20389;-73
2024/03/22 09:35:08;;;;;;;32.72;17.63;;;17.80;29.60;;;;;;5053838;28;20392;-72
2024/03/22 09:37:34;;;;;;;30.95;15.88;;;18.00;28.50;;;;;;5053027;28;20385;-73
2024/03/22 09:40:00;;;;;;;29.42;16.40;;;18.00;28.10;;;;;;5053004;28;20420;-75
2024/03/22 09:42:32;;;;;;;23.10;13.73;;;18.10;27.10;;;;;;5035378;28;20810;-73
2024/03/22 09:44:57;;;;;;;25.95;15.35;;;18.20;26.00;;;;;;5054232;28;20484;-74
2024/03/22 09:47:25;;;;;;;22.75;14.07;;;18.00;26.30;;;;;;5053494;28;20436;-74
2024/03/22 09:49:51;;;;;;;24.55;13.63;;;18.00;25.80;;;;;;5053535;28;20790;-74
2024/03/22 09:52:20;;;;;;;26.60;13.83;;;17.70;26.70;;;;;;5053463;28;20386;-72
2024/03/22 09:54:46;;;;;;;22.50;12.95;;;17.60;26.80;;;;;;5053916;28;20392;-73
2024/03/22 09:57:15;;;;;;;23.63;13.52;;;17.60;25.20;;;;;;5036321;28;20385;-72
2024/03/22 09:59:42;;;;;;;19.13;11.32;;;17.60;25.60;;;;;;5053267;28;20421;-72
2024/03/22 10:02:12;;;;;;;20.02;12.25;;;17.60;24.10;;;;;;5054134;28;20886;-74
2024/03/22 10:04:38;;;;;;;22.40;12.63;;;17.60;25.50;;;;;;5052192;28;20396;-75
2024/03/22 10:07:04;;;;;;;22.15;13.13;;;17.70;25.40;;;;;;5053778;28;20397;-74
2024/03/22 10:09:30;;;;;;;23.95;13.88;;;17.70;25.50;;;;;;5053355;28;20389;-74
2024/03/22 10:11:56;;;;;;;29.30;14.13;;;17.60;25.70;;;;;;5053007;28;20385;-74
2024/03/22 10:14:24;;;;;;;21.27;13.15;;;17.70;26.20;;;;;;5053729;28;20386;-73
2024/03/22 10:16:53;;;;;;;23.65;13.30;;;17.60;25.80;;;;;;5053597;28;20472;-74
2024/03/22 10:19:22;;;;;;;22.63;12.85;;;17.60;25.40;;;;;;5035453;28;20405;-74
2024/03/22 10:22:02;;;;;;;23.58;12.90;;;17.80;24.90;;;;;;5054099;28;20377;-74
2024/03/22 10:24:29;;;;;;;22.87;12.53;;;17.80;24.90;;;;;;5054611;28;20864;-75
2024/03/22 10:26:55;;;;;;;27.77;13.10;;;17.60;24.30;;;;;;5036236;28;20398;-73
2024/03/22 10:29:24;;;;;;;28.30;13.70;;;17.60;24.80;;;;;;5056800;28;20472;-73
2024/03/22 10:31:54;;;;;;;27.65;14.80;;;17.50;25.50;;;;;;5055334;28;20449;-74
2024/03/22 10:34:24;;;;;;;23.33;13.48;;;17.40;25.70;;;;;;5056371;28;20396;-74
2024/03/22 10:36:50;;;;;;;21.90;13.33;;;17.40;25.30;;;;;;5055544;28;20454;-74
2024/03/22 10:39:21;;;;;;;23.90;14.37;;;17.40;25.40;;;;;;5053178;28;20981;-74
2024/03/22 10:41:47;;;;;;;24.50;15.30;;;17.30;26.70;;;;;;5053065;28;20556;-76
2024/03/22 10:44:13;;;;;;;29.00;15.60;;;17.30;27.10;;;;;;5053675;28;20950;-74
2024/03/22 10:46:46;;;;;;;28.58;15.38;;;17.30;27.30;;;;;;5051342;28;20408;-73
2024/03/22 10:49:22;;;;;;;27.90;14.52;;;17.30;28.00;;;;;;5052896;28;20776;-74
2024/03/22 10:52:01;;;;;;;29.10;15.13;;;17.40;26.30;;;;;;5052616;28;20884;-72
2024/03/22 10:54:33;;;;;;;26.60;15.00;;;17.30;26.50;;;;;;5053904;28;20385;-74
2024/03/22 10:56:59;;;;;;;27.80;14.73;;;17.20;26.60;;;;;;5053016;28;20439;-72
2024/03/22 10:59:25;;;;;;;26.05;13.90;;;17.10;26.80;;;;;;5052955;28;20822;-73
2024/03/22 11:01:51;;;;;;;25.80;14.63;;;17.10;26.40;;;;;;5052854;28;20388;-73
2024/03/22 11:04:18;;;;;;;32.70;14.82;;;17.20;26.60;;;;;;5053445;28;20382;-74
2024/03/22 11:06:52;;;;;;;22.27;13.53;;;17.30;25.80;;;;;;5051366;28;20377;-74
2024/03/22 11:09:25;;;;;;;29.13;14.00;;;17.30;26.10;;;;;;5052352;28;20385;-73
2024/03/22 11:11:59;;;;;;;26.30;15.07;;;17.40;26.70;;;;;;5052507;28;20871;-72
2024/03/22 11:14:25;;;;;;;28.10;15.23;;;17.50;26.90;;;;;;5052253;28;20412;-73
2024/03/22 11:16:50;;;;;;;32.77;15.07;;;17.60;26.30;;;;;;5052424;28;20438;-73
2024/03/22 11:19:16;;;;;;;27.73;14.80;;;17.80;25.70;;;;;;5052139;28;20401;-74
2024/03/22 11:21:42;;;;;;;27.00;15.25;;;18.00;25.30;;;;;;5051392;28;20378;-73
2024/03/22 11:24:08;;;;;;;25.85;14.43;;;18.10;25.20;;;;;;5052062;28;20400;-75
2024/03/22 11:26:34;;;;;;;25.83;14.40;;;18.10;24.90;;;;;;5052008;28;20527;-73
2024/03/22 11:29:00;;;;;;;26.58;15.23;;;18.10;25.20;;;;;;5052059;28;20385;-73
2024/03/22 11:31:29;;;;;;;29.23;14.82;;;18.00;25.70;;;;;;5033860;28;20397;-74
2024/03/22 11:33:55;;;;;;;28.42;14.68;;;18.10;25.90;;;;;;5052577;28;20457;-73
2024/03/22 11:36:21;;;;;;;23.50;14.93;;;18.10;25.70;;;;;;5053163;28;20378;-74
2024/03/22 11:38:50;;;;;;;29.67;16.38;;;18.10;26.20;;;;;;5053874;28;20413;-74
2024/03/22 11:41:28;;;;;;;23.65;15.15;;;18.00;26.20;;;;;;5051846;28;20398;-73
2024/03/22 11:43:55;;;;;;;29.15;16.85;;;17.70;27.30;;;;;;5051745;28;20377;-75
2024/03/22 11:46:23;;;;;;;31.10;17.73;;;17.60;28.10;;;;;;5032434;28;20447;-73
2024/03/22 11:48:53;;;;;;;30.92;16.98;;;17.70;27.80;;;;;;5051000;28;20385;-73
2024/03/22 11:51:19;;;;;;;28.80;16.93;;;17.60;28.10;;;;;;5050640;28;20744;-73
2024/03/22 11:53:52;;;;;;;30.17;17.80;;;17.80;28.20;;;;;;5050278;28;20395;-72
2024/03/22 11:56:19;;;;;;;29.40;17.37;;;17.80;28.20;;;;;;5050784;28;20381;-72
2024/03/22 11:58:47;;;;;;;30.60;18.38;;;17.60;28.60;;;;;;5050330;28;20745;-73
2024/03/22 12:01:13;;;;;;;33.85;18.15;;;17.40;29.50;;;;;;5050820;28;20435;-73
2024/03/22 12:03:40;;;;;;;31.00;17.83;;;17.40;29.60;;;;;;5050811;28;20400;-72
2024/03/22 12:06:06;;;;;;;30.15;16.88;;;17.40;29.20;;;;;;5050395;28;20461;-74
2024/03/22 12:08:31;;;;;;;29.17;17.30;;;17.60;29.30;;;;;;5050571;28;20468;-73
2024/03/22 12:10:57;;;;;;;30.50;17.60;;;17.70;29.10;;;;;;5050328;28;20703;-73
2024/03/22 12:13:22;;;;;;;34.33;18.73;;;17.50;29.40;;;;;;5050534;28;20431;-73
2024/03/22 12:15:48;;;;;;;28.70;17.80;;;17.20;30.60;;;;;;5050411;28;20385;-74
2024/03/22 12:18:14;;;;;;;34.40;18.70;;;17.00;30.90;;;;;;5050439;28;20503;-72
2024/03/22 12:20:40;;;;;;;35.67;18.50;;;16.80;31.50;;;;;;5050051;28;20555;-73
2024/03/22 12:23:05;;;;;;;32.22;17.80;;;16.80;32.20;;;;;;5050343;28;20595;-74